KHYR/HYR METAR and TAF weather

Enter ICAO airport designator
Station Type Date Time Source
KHYR METAR 2019/02/23 22:53 UTC NOAA

KHYR 232253Z AUTO 03005KT 6SM HZ OVC013 00/M03 A2974 RMK AO2 SLP088 T00001028


Station Type Date Time Source
KHYR Decoded METAR 2019/02/23 22:53 UTC NOAA

HAYWARD MUNICIPAL AIRPORT, WI, United States (KHYR) 46-01N 91-27W 370M
Feb 23, 2019 - 05:53 PM EST / 2019.02.23 2253 UTC
Wind: from the NNE (030 degrees) at 6 MPH (5 KT):0
Visibility: 6 mile(s):0
Sky conditions: overcast
Weather: haze
Temperature: 32.0 F (0.0 C)
Windchill: 26 F (-3 C):1
Dew Point: 27.0 F (-2.8 C)
Relative Humidity: 81%
Pressure (altimeter): 29.74 in. Hg (1007 hPa)
ob: KHYR 232253Z AUTO 03005KT 6SM HZ OVC013 00/M03 A2974 RMK AO2 SLP088 T00001028
cycle: 23

Station Type Date Time Source
KHYR TAF 2019/02/23 18:36 UTC NOAA

TAF KHYR 231732Z 2318/2418 12007KT 3SM BR VCSH OVC015
FM232200 VRB04KT 3SM BR OVC006
FM240100 04005KT 3SM -FZRASN BR OVC005
FM240400 01008G16KT 1 1/2SM -SN OVC006
FM240600 34012G22KT 1SM -SN BR OVC008
FM241200 32015G28KT 6SM -SN BR OVC010


Example: see airport list